Time;durP1;ratioP1;P1;durP2;ratioP2;P2;SDS_P1;SDS_P2;PMS_P1;PMS_P2;Temp;Humidity;BMP_temperature;BMP_pressure;BME280_temperature;BME280_humidity;BME280_pressure;Samples;Min_cycle;Max_cycle;Signal;HPM_P1;HPM_P2
2021/09/08 00:00:10;;;;;;;;;;;;;;;22.23;29.57;98826.00;4891565;29;1286;-83
2021/09/08 00:02:39;;;;;;;;;;;;;;;22.14;29.66;98829.38;4907859;29;1978;-83
2021/09/08 00:05:05;;;;;;;;;;;;;;;22.22;29.55;98828.00;4890971;29;883;-83
2021/09/08 00:07:30;;;;;;;;;;;;;;;22.27;29.20;98821.84;4906706;29;903;-83
2021/09/08 00:09:56;;;;;;;;;;;;;;;22.29;29.46;98822.25;4907374;29;1014;-83
2021/09/08 00:12:21;;;;;;;;;;;;;;;22.26;29.68;98831.59;4907433;29;579;-83
2021/09/08 00:14:47;;;;;;;;;;;;;;;22.25;29.56;98830.00;4906962;29;624;-83
2021/09/08 00:17:21;;;;;;;;;;;;;;;22.18;29.83;98835.78;4907043;29;650;-83
2021/09/08 00:19:47;;;;;;;;;;;;;;;22.18;29.39;98835.78;4907002;29;948;-83
2021/09/08 00:22:12;;;;;;;;;;;;;;;22.28;29.37;98839.69;4891074;29;1899;-83
2021/09/08 00:24:38;;;;;;;;;;;;;;;22.25;29.41;98835.66;4906627;29;1008;-83
2021/09/08 00:27:05;;;;;;;;;;;;;;;22.35;29.32;98829.03;4890807;29;800;-83
2021/09/08 00:29:31;;;;;;;;;;;;;;;22.15;29.48;98830.97;4906566;29;727;-83
2021/09/08 00:31:57;;;;;;;;;;;;;;;22.18;29.64;98827.28;4906672;29;1430;-83
2021/09/08 00:34:25;;;;;;;;;;;;;;;22.18;29.49;98818.78;4890721;29;1104;-83
2021/09/08 00:36:50;;;;;;;;;;;;;;;22.19;29.57;98809.03;4906771;29;872;-83
2021/09/08 00:39:17;;;;;;;;;;;;;;;22.23;29.25;98821.13;4906970;29;972;-83
2021/09/08 00:41:42;;;;;;;;;;;;;;;22.24;29.49;98816.25;4906215;29;1911;-83
2021/09/08 00:44:09;;;;;;;;;;;;;;;22.16;29.73;98809.09;4890862;29;1482;-83
2021/09/08 00:46:36;;;;;;;;;;;;;;;22.13;29.62;98805.09;4891341;29;1474;-82
2021/09/08 00:49:04;;;;;;;;;;;;;;;22.19;29.73;98802.56;4905923;29;950;-83
2021/09/08 00:51:29;;;;;;;;;;;;;;;22.39;29.31;98794.16;4890330;29;943;-83
2021/09/08 00:53:55;;;;;;;;;;;;;;;22.36;29.37;98796.59;4890490;29;982;-83
2021/09/08 00:56:31;;;;;;;;;;;;;;;22.19;29.63;98792.03;4890579;29;681;-83
2021/09/08 00:58:59;;;;;;;;;;;;;;;22.26;29.35;98786.22;4890751;29;1316;-83
2021/09/08 01:01:24;;;;;;;;;;;;;;;22.32;29.24;98787.34;4890498;29;770;-83
2021/09/08 01:03:51;;;;;;;;;;;;;;;22.16;29.41;98790.03;4905411;29;1970;-83
2021/09/08 01:06:20;;;;;;;;;;;;;;;22.30;29.33;98798.31;4906313;29;889;-82
2021/09/08 01:08:49;;;;;;;;;;;;;;;22.34;29.35;98793.41;4890347;29;828;-83
2021/09/08 01:11:16;;;;;;;;;;;;;;;22.26;29.55;98791.91;4890601;29;1458;-83
2021/09/08 01:13:41;;;;;;;;;;;;;;;22.29;29.38;98793.88;4889775;29;707;-83
2021/09/08 01:16:07;;;;;;;;;;;;;;;22.35;29.32;98795.00;4906410;29;677;-83
2021/09/08 01:18:32;;;;;;;;;;;;;;;22.30;29.36;98786.97;4889607;29;987;-83
2021/09/08 01:20:58;;;;;;;;;;;;;;;22.32;29.42;98784.50;4889824;29;897;-83
2021/09/08 01:23:23;;;;;;;;;;;;;;;22.11;29.36;98784.88;4889578;29;1911;-83
2021/09/08 01:25:49;;;;;;;;;;;;;;;22.12;29.40;98780.78;4905668;29;652;-83
2021/09/08 01:28:14;;;;;;;;;;;;;;;22.22;29.46;98788.31;4904754;29;1248;-83
2021/09/08 01:30:43;;;;;;;;;;;;;;;22.34;29.39;98793.41;4874443;29;1518;-83
2021/09/08 01:33:09;;;;;;;;;;;;;;;22.30;29.03;98780.50;4889786;29;863;-83
2021/09/08 01:35:34;;;;;;;;;;;;;;;22.25;29.15;98778.97;4889374;29;842;-84
2021/09/08 01:38:00;;;;;;;;;;;;;;;22.22;29.46;98776.97;4905189;29;965;-83
2021/09/08 01:40:25;;;;;;;;;;;;;;;22.30;29.11;98781.31;4906012;29;628;-83
2021/09/08 01:42:51;;;;;;;;;;;;;;;22.24;29.35;98777.38;4889341;29;2024;-83
2021/09/08 01:45:16;;;;;;;;;;;;;;;22.41;28.96;98769.78;4889499;29;789;-83
2021/09/08 01:47:42;;;;;;;;;;;;;;;22.41;29.10;98774.66;4905061;29;890;-83
2021/09/08 01:50:08;;;;;;;;;;;;;;;22.30;29.27;98769.97;4904763;29;993;-83
2021/09/08 01:52:34;;;;;;;;;;;;;;;22.21;29.30;98783.88;4904954;29;873;-83
2021/09/08 01:54:59;;;;;;;;;;;;;;;22.16;29.58;98775.88;4889350;29;683;-83
2021/09/08 01:57:24;;;;;;;;;;;;;;;22.23;29.49;98775.78;4905304;29;1164;-83
2021/09/08 01:59:50;;;;;;;;;;;;;;;22.28;29.41;98778.13;4904860;29;643;-83
2021/09/08 02:02:16;;;;;;;;;;;;;;;22.24;29.43;98783.03;4904715;29;1907;-83
2021/09/08 02:04:41;;;;;;;;;;;;;;;22.14;29.51;98778.34;4904423;29;979;-83
2021/09/08 02:07:07;;;;;;;;;;;;;;;22.27;29.24;98779.31;4889389;29;883;-83
2021/09/08 02:09:32;;;;;;;;;;;;;;;22.26;29.18;98780.56;4904750;29;971;-83
2021/09/08 02:11:58;;;;;;;;;;;;;;;22.27;29.46;98787.84;4904759;29;939;-83
2021/09/08 02:14:24;;;;;;;;;;;;;;;22.23;29.45;98772.94;4889270;29;657;-82
2021/09/08 02:16:50;;;;;;;;;;;;;;;22.26;29.20;98771.25;4888779;29;856;-82
2021/09/08 02:19:15;;;;;;;;;;;;;;;22.36;29.24;98756.91;4888748;29;922;-82
2021/09/08 02:21:40;;;;;;;;;;;;;;;22.23;29.23;98758.75;4888925;29;1899;-82
2021/09/08 02:24:06;;;;;;;;;;;;;;;22.21;29.36;98758.38;4904678;29;663;-81
2021/09/08 02:26:31;;;;;;;;;;;;;;;22.27;29.06;98759.47;4904829;29;799;-83
2021/09/08 02:28:57;;;;;;;;;;;;;;;22.19;29.18;98754.38;4888973;29;797;-83
2021/09/08 02:31:23;;;;;;;;;;;;;;;22.02;29.58;98748.56;4904616;29;1082;-83
2021/09/08 02:33:49;;;;;;;;;;;;;;;22.35;29.14;98749.63;4904314;29;984;-83
2021/09/08 02:36:14;;;;;;;;;;;;;;;22.13;29.53;98753.28;4889121;29;913;-83
2021/09/08 02:38:40;;;;;;;;;;;;;;;22.17;29.50;98746.28;4890311;29;665;-83
2021/09/08 02:41:08;;;;;;;;;;;;;;;22.14;29.67;98749.22;4892878;29;1033;-83
2021/09/08 02:43:37;;;;;;;;;;;;;;;22.15;29.66;98757.28;4908363;29;1984;-83
2021/09/08 02:46:03;;;;;;;;;;;;;;;22.17;29.73;98754.78;4892767;29;1056;-83
2021/09/08 02:48:32;;;;;;;;;;;;;;;22.25;29.16;98739.28;4892609;29;1280;-83
2021/09/08 02:50:58;;;;;;;;;;;;;;;22.04;29.59;98748.13;4908305;29;833;-82
2021/09/08 02:53:23;;;;;;;;;;;;;;;22.23;29.42;98750.25;4892319;29;923;-82
2021/09/08 02:55:50;;;;;;;;;;;;;;;22.13;29.59;98753.28;4892585;29;659;-82
2021/09/08 02:58:16;;;;;;;;;;;;;;;22.26;29.14;98749.38;4907872;29;663;-82
2021/09/08 03:00:41;;;;;;;;;;;;;;;22.21;29.35;98744.19;4908484;29;1113;-82
2021/09/08 03:03:07;;;;;;;;;;;;;;;22.16;29.47;98747.53;4907681;29;1903;-82
2021/09/08 03:05:32;;;;;;;;;;;;;;;22.31;29.37;98751.72;4907768;29;893;-82
2021/09/08 03:07:58;;;;;;;;;;;;;;;22.25;29.22;98750.63;4908245;29;684;-82
2021/09/08 03:10:23;;;;;;;;;;;;;;;22.32;29.33;98750.47;4907914;29;707;-82
2021/09/08 03:12:49;;;;;;;;;;;;;;;22.26;29.09;98752.22;4908498;29;593;-82
2021/09/08 03:15:14;;;;;;;;;;;;;;;22.23;29.55;98753.09;4891799;29;1186;-82
2021/09/08 03:17:40;;;;;;;;;;;;;;;22.12;29.66;98758.13;4907894;29;895;-82
2021/09/08 03:20:05;;;;;;;;;;;;;;;22.26;29.38;98757.09;4907587;29;853;-82
2021/09/08 03:22:31;;;;;;;;;;;;;;;22.22;29.19;98756.34;4907441;29;1887;-82
2021/09/08 03:24:56;;;;;;;;;;;;;;;22.27;29.19;98759.47;4908108;29;600;-82
2021/09/08 03:27:22;;;;;;;;;;;;;;;22.24;29.27;98754.69;4907803;29;839;-82
2021/09/08 03:29:47;;;;;;;;;;;;;;;22.33;29.14;98749.28;4906753;29;1030;-82
2021/09/08 03:32:13;;;;;;;;;;;;;;;22.31;29.24;98754.56;4891352;29;972;-82
2021/09/08 03:34:38;;;;;;;;;;;;;;;22.28;29.40;98743.28;4907255;29;899;-82
2021/09/08 03:37:04;;;;;;;;;;;;;;;22.20;29.40;98753.94;4908144;29;692;-82
2021/09/08 03:39:29;;;;;;;;;;;;;;;22.19;29.71;98763.69;4907160;29;653;-82
2021/09/08 03:41:55;;;;;;;;;;;;;;;22.07;29.72;98761.41;4907083;29;1890;-82
2021/09/08 03:44:20;;;;;;;;;;;;;;;22.24;29.59;98763.19;4907569;29;992;-82
2021/09/08 03:46:46;;;;;;;;;;;;;;;22.14;29.61;98761.34;4907451;29;884;-82
2021/09/08 03:49:12;;;;;;;;;;;;;;;22.18;29.52;98770.59;4890947;29;851;-82
2021/09/08 03:51:37;;;;;;;;;;;;;;;22.28;29.46;98761.09;4906574;29;752;-82
2021/09/08 03:54:03;;;;;;;;;;;;;;;22.31;29.33;98771.56;4890951;29;927;-82
2021/09/08 03:56:28;;;;;;;;;;;;;;;22.23;29.48;98758.75;4906526;29;944;-82
2021/09/08 03:58:54;;;;;;;;;;;;;;;22.24;29.51;98760.34;4906707;29;925;-82
2021/09/08 04:01:19;;;;;;;;;;;;;;;22.31;28.99;98768.72;4907001;29;1119;-82
2021/09/08 04:03:48;;;;;;;;;;;;;;;22.26;29.49;98763.56;4906499;29;1903;-82
2021/09/08 04:06:14;;;;;;;;;;;;;;;22.23;29.38;98770.09;4906522;29;929;-82
2021/09/08 04:08:40;;;;;;;;;;;;;;;22.28;29.35;98772.44;4906843;29;711;-82
2021/09/08 04:11:05;;;;;;;;;;;;;;;22.43;29.21;98766.50;4906705;29;851;-82
2021/09/08 04:13:31;;;;;;;;;;;;;;;22.26;29.10;98763.56;4906102;29;964;-82
2021/09/08 04:15:56;;;;;;;;;;;;;;;22.22;29.51;98764.84;4906445;29;936;-82
2021/09/08 04:18:22;;;;;;;;;;;;;;;22.33;29.47;98757.78;4905935;29;1310;-82
2021/09/08 04:20:47;;;;;;;;;;;;;;;22.21;29.48;98764.03;4890774;29;912;-82
2021/09/08 04:23:13;;;;;;;;;;;;;;;22.11;29.50;98762.19;4890269;29;1962;-82
2021/09/08 04:25:38;;;;;;;;;;;;;;;22.29;29.34;98767.56;4906103;29;936;-82
2021/09/08 04:28:04;;;;;;;;;;;;;;;22.25;29.57;98767.63;4906173;29;1337;-82
2021/09/08 04:30:29;;;;;;;;;;;;;;;22.35;29.03;98765.84;4890055;29;1320;-82
2021/09/08 04:32:55;;;;;;;;;;;;;;;22.16;29.58;98775.88;4905862;29;1374;-81
2021/09/08 04:35:20;;;;;;;;;;;;;;;22.11;29.47;98773.53;4906300;29;716;-82
2021/09/08 04:37:46;;;;;;;;;;;;;;;22.21;29.70;98771.75;4906860;29;703;-82
2021/09/08 04:40:11;;;;;;;;;;;;;;;22.21;29.39;98761.22;4905671;29;1015;-82
2021/09/08 04:42:37;;;;;;;;;;;;;;;22.17;29.65;98771.81;4905987;29;1978;-82
2021/09/08 04:45:03;;;;;;;;;;;;;;;22.25;29.23;98761.97;4905785;29;913;-82
2021/09/08 04:47:28;;;;;;;;;;;;;;;22.21;29.57;98764.03;4906052;29;724;-82
2021/09/08 04:49:53;;;;;;;;;;;;;;;22.19;29.47;98775.03;4890960;29;1173;-82
2021/09/08 04:52:19;;;;;;;;;;;;;;;22.25;29.28;98773.28;4890497;29;1441;-82
2021/09/08 04:54:44;;;;;;;;;;;;;;;22.28;29.57;98778.13;4905484;29;960;-82
2021/09/08 04:57:10;;;;;;;;;;;;;;;22.25;29.34;98784.63;4905546;29;894;-81
2021/09/08 04:59:35;;;;;;;;;;;;;;;22.29;29.47;98779.72;4890183;29;886;-82
2021/09/08 05:02:01;;;;;;;;;;;;;;;22.21;29.44;98781.06;4888583;29;1988;-82
2021/09/08 05:04:26;;;;;;;;;;;;;;;22.31;29.41;98785.75;4905686;29;1528;-82
2021/09/08 05:07:04;;;;;;;;;;;;;;;22.32;29.29;98778.03;4906286;29;1353;-82
2021/09/08 05:09:30;;;;;;;;;;;;;;;22.19;29.44;98779.91;4906075;29;897;-82
2021/09/08 05:11:55;;;;;;;;;;;;;;;22.18;29.36;98778.31;4906250;29;1056;-82
2021/09/08 05:14:21;;;;;;;;;;;;;;;22.27;29.42;98772.84;4906049;29;963;-82
2021/09/08 05:16:47;;;;;;;;;;;;;;;22.35;29.36;98771.50;4904883;29;1450;-82
2021/09/08 05:19:12;;;;;;;;;;;;;;;22.30;29.66;98784.16;4889645;29;1469;-82
2021/09/08 05:21:37;;;;;;;;;;;;;;;22.31;29.59;98785.75;4906050;29;660;-82
2021/09/08 05:24:03;;;;;;;;;;;;;;;22.42;29.45;98776.25;4904917;29;1977;-82
2021/09/08 05:26:29;;;;;;;;;;;;;;;22.27;29.51;98789.88;4889465;29;916;-82
2021/09/08 05:28:54;;;;;;;;;;;;;;;22.20;29.79;98787.97;4904716;29;884;-82
2021/09/08 05:31:19;;;;;;;;;;;;;;;22.17;29.97;98794.47;4904831;29;1054;-82
2021/09/08 05:33:45;;;;;;;;;;;;;;;22.29;29.43;98791.06;4888655;29;1434;-82
2021/09/08 05:36:11;;;;;;;;;;;;;;;22.31;29.56;98794.25;4904600;29;1377;-82
2021/09/08 05:38:36;;;;;;;;;;;;;;;22.13;29.95;98790.91;4904515;29;808;-82
2021/09/08 05:41:05;;;;;;;;;;;;;;;22.28;29.57;98789.47;4905604;29;886;-82
2021/09/08 05:43:31;;;;;;;;;;;;;;;22.34;29.38;98793.41;4904830;29;1971;-82
2021/09/08 05:45:56;;;;;;;;;;;;;;;22.36;29.40;98790.91;4904981;29;668;-82
2021/09/08 05:48:22;;;;;;;;;;;;;;;22.26;29.67;98791.91;4905460;29;851;-82
2021/09/08 05:50:47;;;;;;;;;;;;;;;22.32;29.52;98790.16;4905402;29;787;-81
2021/09/08 05:53:13;;;;;;;;;;;;;;;22.35;29.86;98789.31;4889441;29;1094;-82
2021/09/08 05:55:39;;;;;;;;;;;;;;;22.32;29.85;98790.16;4903694;29;903;-82
2021/09/08 05:58:04;;;;;;;;;;;;;;;22.23;29.74;98787.13;4888762;29;1024;-82
2021/09/08 06:00:30;;;;;;;;;;;;;;;22.32;29.75;98790.16;4889089;29;857;-82
2021/09/08 06:02:55;;;;;;;;;;;;;;;22.15;30.14;98791.28;4904721;29;1894;-82
2021/09/08 06:05:22;;;;;;;;;;;;;;;22.40;29.78;98795.75;4888939;29;1390;-82
2021/09/08 06:07:47;;;;;;;;;;;;;;;22.15;30.14;98791.28;4904601;29;1015;-82
2021/09/08 06:10:17;;;;;;;;;;;;;;;22.30;29.69;98792.66;4888438;29;1377;-81
2021/09/08 06:12:43;;;;;;;;;;;;;;;22.26;29.76;98794.75;4904757;29;1230;-82
2021/09/08 06:15:09;;;;;;;;;;;;;;;22.36;29.70;98793.75;4904679;29;1519;-82
2021/09/08 06:17:34;;;;;;;;;;;;;;;22.40;29.82;98784.41;4904421;29;1496;-82
2021/09/08 06:20:00;;;;;;;;;;;;;;;22.27;29.67;98787.84;4904853;29;1337;-82
2021/09/08 06:22:25;;;;;;;;;;;;;;;22.26;29.74;98800.41;4904701;29;1978;-82
2021/09/08 06:24:52;;;;;;;;;;;;;;;22.41;29.63;98791.66;4904793;29;1048;-81
2021/09/08 06:27:18;;;;;;;;;;;;;;;22.36;29.64;98802.25;4905142;29;1389;-82
2021/09/08 06:29:43;;;;;;;;;;;;;;;22.56;29.53;98793.81;4888999;29;969;-79
2021/09/08 06:32:08;;;;;;;;;;;;;;;22.33;30.32;98802.34;4904279;29;785;-78
2021/09/08 06:34:34;;;;;;;;;;;;;;;22.61;30.03;98803.88;4905127;29;680;-79
2021/09/08 06:37:00;;;;;;;;;;;;;;;22.66;29.89;98820.41;4904202;29;1412;-78
2021/09/08 06:39:25;;;;;;;;;;;;;;;22.97;29.64;98806.06;4904842;29;1376;-78
2021/09/08 06:41:51;;;;;;;;;;;;;;;22.80;29.51;98803.13;4904970;29;1981;-78
2021/09/08 06:44:17;;;;;;;;;;;;;;;22.94;29.59;98802.06;4905091;29;680;-79
2021/09/08 06:46:43;;;;;;;;;;;;;;;22.62;30.22;98796.94;4904937;29;1388;-78
2021/09/08 06:49:08;;;;;;;;;;;;;;;22.57;30.38;98805.97;4904865;29;720;-79
2021/09/08 06:51:34;;;;;;;;;;;;;;;22.57;30.39;98800.28;4904956;29;946;-78
2021/09/08 06:53:59;;;;;;;;;;;;;;;22.44;31.03;98796.50;4904575;29;915;-77
2021/09/08 06:56:25;;;;;;;;;;;;;;;22.59;30.28;98803.50;4905084;29;1030;-78
2021/09/08 06:58:50;;;;;;;;;;;;;;;22.63;31.00;98792.88;4904817;29;1361;-77
2021/09/08 07:01:16;;;;;;;;;;;;;;;22.73;30.83;98797.56;4904862;29;698;-78
2021/09/08 07:03:41;;;;;;;;;;;;;;;22.96;30.11;98804.47;4904722;29;1962;-78
2021/09/08 07:06:07;;;;;;;;;;;;;;;22.51;30.98;98802.03;4904536;29;1061;-77
2021/09/08 07:08:32;;;;;;;;;;;;;;;22.69;30.57;98805.34;4904837;29;896;-78
2021/09/08 07:10:58;;;;;;;;;;;;;;;22.96;30.30;98810.16;4904630;29;989;-78
2021/09/08 07:13:23;;;;;;;;;;;;;;;22.77;30.74;98798.28;4904668;29;601;-78
2021/09/08 07:15:49;;;;;;;;;;;;;;;22.99;30.34;98809.25;4905041;29;629;-77
2021/09/08 07:18:14;;;;;;;;;;;;;;;22.58;30.89;98802.69;4904954;29;636;-77
2021/09/08 07:20:41;;;;;;;;;;;;;;;22.92;30.26;98801.69;4904349;29;1056;-77
2021/09/08 07:23:07;;;;;;;;;;;;;;;22.64;30.83;98811.53;4904707;29;1924;-77
2021/09/08 07:25:32;;;;;;;;;;;;;;;23.08;30.38;98801.78;4905795;29;1106;-80
2021/09/08 07:27:58;;;;;;;;;;;;;;;22.96;30.51;98802.44;4908065;29;624;-80
2021/09/08 07:30:23;;;;;;;;;;;;;;;22.69;31.12;98805.34;4908136;29;700;-78
2021/09/08 07:32:49;;;;;;;;;;;;;;;23.17;30.50;98815.41;4907393;29;1099;-79
2021/09/08 07:35:14;;;;;;;;;;;;;;;23.06;30.92;98818.47;4907896;29;939;-78
2021/09/08 07:37:40;;;;;;;;;;;;;;;23.04;30.94;98825.78;4907644;29;930;-78
2021/09/08 07:40:06;;;;;;;;;;;;;;;23.09;30.54;98811.88;4907835;29;1065;-77
2021/09/08 07:42:31;;;;;;;;;;;;;;;22.98;31.01;98816.19;4906962;29;1984;-77
2021/09/08 07:44:57;;;;;;;;;;;;;;;22.81;31.54;98815.25;4907807;29;660;-78
2021/09/08 07:47:22;;;;;;;;;;;;;;;23.03;31.04;98821.34;4907728;29;700;-78
2021/09/08 07:49:48;;;;;;;;;;;;;;;23.25;30.71;98825.34;4907579;29;1022;-78
2021/09/08 07:52:13;;;;;;;;;;;;;;;23.23;30.69;98819.34;4907424;29;893;-78
2021/09/08 07:54:39;;;;;;;;;;;;;;;22.59;31.97;98826.19;4907522;29;914;-78
2021/09/08 07:57:04;;;;;;;;;;;;;;;22.92;31.30;98815.88;4907655;29;715;-77
2021/09/08 07:59:30;;;;;;;;;;;;;;;22.90;31.43;98824.03;4907773;29;632;-78
2021/09/08 08:01:55;;;;;;;;;;;;;;;22.99;30.96;98831.97;4907359;29;1891;-78
2021/09/08 08:04:21;;;;;;;;;;;;;;;23.30;30.40;98836.22;4907493;29;985;-78
2021/09/08 08:06:47;;;;;;;;;;;;;;;23.20;30.79;98820.19;4907246;29;921;-78
2021/09/08 08:09:12;;;;;;;;;;;;;;;23.10;31.23;98815.53;4907167;29;833;-74
2021/09/08 08:11:37;;;;;;;;;;;;;;;23.16;32.25;98830.84;4907732;29;636;-79
2021/09/08 08:14:03;;;;;;;;;;;;;;;23.39;32.27;98827.91;4907566;29;797;-77
2021/09/08 08:16:29;;;;;;;;;;;;;;;23.11;33.11;98822.84;4907440;29;1266;-80
2021/09/08 08:18:54;;;;;;;;;;;;;;;23.39;32.65;98829.97;4906879;29;1344;-79
2021/09/08 08:21:19;;;;;;;;;;;;;;;23.59;32.21;98818.59;4907093;29;848;-77
2021/09/08 08:23:45;;;;;;;;;;;;;;;23.71;32.33;98826.44;4906926;29;1899;-76
2021/09/08 08:26:10;;;;;;;;;;;;;;;23.43;32.46;98818.53;4907208;29;1373;-80
2021/09/08 08:28:36;;;;;;;;;;;;;;;23.36;32.31;98817.44;4906606;29;707;-81
2021/09/08 08:31:02;;;;;;;;;;;;;;;23.35;31.96;98815.03;4906301;29;1001;-80
2021/09/08 08:33:27;;;;;;;;;;;;;;;23.22;31.87;98817.75;4906077;29;996;-80
2021/09/08 08:35:54;;;;;;;;;;;;;;;23.34;31.86;98817.06;4906532;29;944;-80
2021/09/08 08:38:19;;;;;;;;;;;;;;;23.19;31.61;98821.44;4906020;29;1421;-80
2021/09/08 08:40:45;;;;;;;;;;;;;;;23.16;31.73;98808.13;4887151;29;1442;-78
2021/09/08 08:43:10;;;;;;;;;;;;;;;23.03;31.74;98815.69;4902579;29;1899;-80
2021/09/08 08:45:36;;;;;;;;;;;;;;;23.07;31.56;98813.56;4903030;29;707;-80
2021/09/08 08:48:01;;;;;;;;;;;;;;;23.17;31.07;98820.28;4887832;29;932;-80
2021/09/08 08:50:27;;;;;;;;;;;;;;;23.19;31.27;98812.91;4902659;29;978;-80
2021/09/08 08:52:53;;;;;;;;;;;;;;;23.23;30.73;98810.81;4921018;29;1428;-80
2021/09/08 08:55:18;;;;;;;;;;;;;;;23.26;30.79;98823.31;4889951;29;1398;-80
2021/09/08 08:57:48;;;;;;;;;;;;;;;23.13;30.84;98820.34;4906676;29;699;-81
2021/09/08 09:00:23;;;;;;;;;;;;;;;23.08;30.84;98820.84;4905878;29;640;-81
2021/09/08 09:02:49;;;;;;;;;;;;;;;23.13;30.50;98820.34;4906074;29;1907;-81
2021/09/08 09:05:27;;;;;;;;;;;;;;;23.14;30.22;98816.25;4905923;29;1238;-80
2021/09/08 09:07:53;;;;;;;;;;;;;;;23.03;30.68;98821.34;4905790;29;664;-81
2021/09/08 09:10:18;;;;;;;;;;;;;;;23.14;30.49;98819.09;4905784;29;875;-80
2021/09/08 09:12:44;;;;;;;;;;;;;;;23.00;30.67;98823.03;4905684;29;720;-81
2021/09/08 09:15:10;;;;;;;;;;;;;;;23.11;30.24;98822.84;4905121;29;1432;-80
2021/09/08 09:17:36;;;;;;;;;;;;;;;23.13;30.42;98814.66;4904776;29;1341;-80
2021/09/08 09:20:09;;;;;;;;;;;;;;;22.99;30.43;98820.63;4905272;29;817;-80
2021/09/08 09:22:35;;;;;;;;;;;;;;;22.98;30.64;98814.16;4905228;29;1910;-80
2021/09/08 09:25:01;;;;;;;;;;;;;;;22.93;30.32;98819.53;4906218;29;1341;-80
2021/09/08 09:27:27;;;;;;;;;;;;;;;23.07;30.01;98813.56;4905325;29;667;-81
2021/09/08 09:29:52;;;;;;;;;;;;;;;23.13;29.87;98809.00;4889768;29;1217;-80
2021/09/08 09:32:17;;;;;;;;;;;;;;;23.11;29.91;98811.47;4904920;29;1232;-80
2021/09/08 09:34:43;;;;;;;;;;;;;;;22.93;30.44;98805.34;4905252;29;1322;-81
2021/09/08 09:37:09;;;;;;;;;;;;;;;22.91;30.14;98807.81;4905976;29;1027;-80
2021/09/08 09:39:35;;;;;;;;;;;;;;;22.80;30.66;98808.78;4905253;29;684;-80
2021/09/08 09:42:10;;;;;;;;;;;;;;;22.82;30.56;98805.50;4904791;29;1915;-80
2021/09/08 09:44:36;;;;;;;;;;;;;;;22.83;30.38;98807.91;4885938;29;781;-81
2021/09/08 09:47:01;;;;;;;;;;;;;;;22.92;30.44;98803.75;4886034;29;907;-80
2021/09/08 09:49:28;;;;;;;;;;;;;;;22.91;30.22;98805.78;4885561;29;897;-80
2021/09/08 09:51:55;;;;;;;;;;;;;;;22.81;30.56;98807.56;4886110;29;1477;-80
2021/09/08 09:54:21;;;;;;;;;;;;;;;22.74;30.39;98790.66;4900184;29;1398;-80
2021/09/08 09:56:47;;;;;;;;;;;;;;;22.71;30.60;98788.69;4889523;29;700;-80
2021/09/08 09:59:12;;;;;;;;;;;;;;;22.82;30.26;98789.28;4905504;29;676;-80
2021/09/08 10:01:38;;;;;;;;;;;;;;;22.89;30.31;98774.19;4905162;29;1286;-80
2021/09/08 10:04:03;;;;;;;;;;;;;;;22.80;30.37;98820.13;4888813;29;1973;-80
2021/09/08 10:06:29;;;;;;;;;;;;;;;22.79;30.47;98773.13;4905133;29;1046;-80
2021/09/08 10:08:58;;;;;;;;;;;;;;;22.93;29.85;98782.63;4903988;29;1350;-80
2021/09/08 10:11:24;;;;;;;;;;;;;;;22.75;30.32;98783.75;4905349;29;700;-80
2021/09/08 10:13:51;;;;;;;;;;;;;;;22.91;30.04;98768.09;4915560;29;1408;-79
2021/09/08 10:16:17;;;;;;;;;;;;;;;22.92;30.02;98775.34;4923641;29;716;-80
2021/09/08 10:18:42;;;;;;;;;;;;;;;22.85;30.07;98779.91;4924074;29;687;-80
2021/09/08 10:21:08;;;;;;;;;;;;;;;22.70;30.46;98770.06;4923052;29;1324;-79
2021/09/08 10:23:35;;;;;;;;;;;;;;;22.92;30.18;98752.66;4923723;29;1907;-80
2021/09/08 10:26:08;;;;;;;;;;;;;;;22.85;30.19;98757.22;4923179;29;1326;-80
2021/09/08 10:28:33;;;;;;;;;;;;;;;22.86;30.28;98763.69;4923358;29;659;-79
2021/09/08 10:30:59;;;;;;;;;;;;;;;22.79;30.09;98767.44;4923289;29;1200;-79
2021/09/08 10:33:24;;;;;;;;;;;;;;;22.92;30.00;98758.34;4924346;29;612;-80
2021/09/08 10:35:50;;;;;;;;;;;;;;;22.97;30.05;98755.00;4923662;29;1024;-79
2021/09/08 10:38:23;;;;;;;;;;;;;;;22.91;29.87;98756.75;4922908;29;863;-80
2021/09/08 10:40:49;;;;;;;;;;;;;;;22.85;30.02;98767.75;4923744;29;1121;-79
2021/09/08 10:43:14;;;;;;;;;;;;;;;22.82;30.15;98769.41;4923444;29;1986;-79
2021/09/08 10:45:50;;;;;;;;;;;;;;;22.79;30.04;98747.56;4923404;29;704;-80
2021/09/08 10:48:33;;;;;;;;;;;;;;;22.88;29.84;98759.19;4923376;29;675;-80
2021/09/08 10:50:58;;;;;;;;;;;;;;;23.00;29.82;98746.41;4923520;29;979;-80
2021/09/08 10:53:30;;;;;;;;;;;;;;;22.74;30.33;98759.47;4922890;29;973;-79
2021/09/08 10:55:56;;;;;;;;;;;;;;;22.73;30.44;98755.00;4923840;29;644;-79
2021/09/08 10:58:21;;;;;;;;;;;;;;;22.81;30.29;98741.50;4923002;29;867;-79
2021/09/08 11:00:48;;;;;;;;;;;;;;;22.86;29.89;98746.66;4927009;29;739;-79
2021/09/08 11:03:14;;;;;;;;;;;;;;;22.83;30.16;98745.47;4927570;29;1966;-79
2021/09/08 11:05:51;;;;;;;;;;;;;;;22.99;29.84;98752.50;4927132;29;959;-80
2021/09/08 11:08:35;;;;;;;;;;;;;;;22.95;29.85;98754.59;4926232;29;924;-79
2021/09/08 11:11:13;;;;;;;;;;;;;;;22.87;29.97;98760.41;4918988;29;1377;-80
2021/09/08 11:13:39;;;;;;;;;;;;;;;22.79;30.30;98739.06;4907431;29;1354;-80
2021/09/08 11:16:18;;;;;;;;;;;;;;;22.75;30.45;98737.56;4907334;29;769;-80
2021/09/08 11:18:43;;;;;;;;;;;;;;;22.96;30.20;98747.72;4907099;29;809;-80
2021/09/08 11:21:09;;;;;;;;;;;;;;;23.00;29.81;98754.09;4907741;29;1310;-80
2021/09/08 11:23:34;;;;;;;;;;;;;;;22.88;30.04;98736.50;4906782;29;1978;-80
2021/09/08 11:26:06;;;;;;;;;;;;;;;22.89;30.25;98740.13;4908132;29;1094;-80
2021/09/08 11:28:32;;;;;;;;;;;;;;;22.85;30.14;98740.19;4908364;29;643;-80
2021/09/08 11:30:58;;;;;;;;;;;;;;;22.62;30.64;98745.91;4907470;29;1459;-80
2021/09/08 11:33:32;;;;;;;;;;;;;;;22.87;30.00;98737.69;4906965;29;1343;-80
2021/09/08 11:35:58;;;;;;;;;;;;;;;22.73;30.53;98734.34;4906748;29;973;-80
2021/09/08 11:38:25;;;;;;;;;;;;;;;22.87;30.23;98734.88;4906991;29;849;-80
2021/09/08 11:40:54;;;;;;;;;;;;;;;22.78;30.22;98719.66;4907315;29;989;-80
2021/09/08 11:43:29;;;;;;;;;;;;;;;22.83;30.12;98722.78;4890479;29;2006;-80
2021/09/08 11:45:55;;;;;;;;;;;;;;;22.71;30.40;98716.97;4907887;29;652;-79
2021/09/08 11:48:30;;;;;;;;;;;;;;;22.81;30.47;98741.50;4907855;29;647;-80
2021/09/08 11:51:03;;;;;;;;;;;;;;;22.70;30.32;98719.00;4906921;29;951;-80
2021/09/08 11:53:28;;;;;;;;;;;;;;;22.90;30.03;98723.91;4907188;29;1420;-80
2021/09/08 11:56:02;;;;;;;;;;;;;;;22.73;30.39;98715.28;4906827;29;785;-80
2021/09/08 11:58:28;;;;;;;;;;;;;;;22.75;30.35;98704.31;4907158;29;1272;-79
2021/09/08 12:00:57;;;;;;;;;;;;;;;22.70;30.46;98713.34;4907704;29;684;-79
2021/09/08 12:03:22;;;;;;;;;;;;;;;22.71;30.33;98714.13;4907288;29;1899;-80
2021/09/08 12:05:49;;;;;;;;;;;;;;;23.00;30.07;98720.03;4906595;29;1093;-80
2021/09/08 12:08:23;;;;;;;;;;;;;;;22.83;30.28;98708.59;4907428;29;955;-80
2021/09/08 12:10:49;;;;;;;;;;;;;;;22.88;30.16;98713.78;4905920;29;928;-80
2021/09/08 12:13:27;;;;;;;;;;;;;;;22.86;30.22;98707.72;4907137;29;1408;-79
2021/09/08 12:15:57;;;;;;;;;;;;;;;22.90;30.04;98704.03;4906530;29;1381;-80
2021/09/08 12:18:22;;;;;;;;;;;;;;;22.71;30.61;98709.25;4906463;29;931;-80
2021/09/08 12:20:48;;;;;;;;;;;;;;;22.76;30.41;98694.56;4905968;29;1045;-80
2021/09/08 12:23:29;;;;;;;;;;;;;;;22.76;30.43;98700.22;4906213;29;1910;-80
2021/09/08 12:26:02;;;;;;;;;;;;;;;22.95;30.23;98706.34;4907403;29;1448;-80
2021/09/08 12:28:27;;;;;;;;;;;;;;;22.80;30.24;98700.97;4906466;29;624;-80
2021/09/08 12:31:13;;;;;;;;;;;;;;;22.75;30.55;98698.66;4906194;29;864;-80
2021/09/08 12:33:51;;;;;;;;;;;;;;;22.67;30.75;98696.38;4903303;29;1091;-80
2021/09/08 12:36:16;;;;;;;;;;;;;;;22.86;30.09;98704.09;4906645;29;1352;-79
2021/09/08 12:38:43;;;;;;;;;;;;;;;22.83;30.00;98705.75;4906690;29;938;-80
2021/09/08 12:41:21;;;;;;;;;;;;;;;22.88;30.14;98701.63;4907265;29;990;-80
2021/09/08 12:43:53;;;;;;;;;;;;;;;22.93;30.23;98697.50;4906305;29;1907;-80
2021/09/08 12:46:37;;;;;;;;;;;;;;;22.88;30.12;98684.63;4906748;29;1483;-80
2021/09/08 12:49:03;;;;;;;;;;;;;;;22.91;30.09;98691.47;4906770;29;879;-80
2021/09/08 12:51:28;;;;;;;;;;;;;;;22.73;30.22;98681.25;4905790;29;945;-79
2021/09/08 12:54:05;;;;;;;;;;;;;;;22.85;30.09;98679.81;4906484;29;849;-80
2021/09/08 12:56:31;;;;;;;;;;;;;;;22.73;30.52;98692.59;4906336;29;1329;-80
2021/09/08 12:58:59;;;;;;;;;;;;;;;22.63;30.67;98685.09;4905986;29;663;-79